Oakley, Michigan
Current Conditions -  °F | °C
As of 3:34 PM on Friday 28 Nov 2014 (Local Time) from KRNP Reporting Station
Light Snow Light Snow  
Wind Chill: 19°   Ceiling: 1400
Heat Index: 25°   Visibility: 1.5mi
Dew Point: 22°   Wind: 5mph
Humidity: 87%   Direction: 160°SSE
Pressure: 30.15"   Gusts: NA
Location:  43.14°N, 84.17°W
Report Text: KRNP 282034Z AUTO 16004KT 1 1/2SM -SN OVC014 M04/M06 A3015 RMK AO2 T10391058
Loading
Personal Weather Stations






























Interactive Weather Map New forecast layout! Learn more

10-Day Weather Forecast

Advertisements
Track Severe Weather on mobile